Air Resources Laboratory banner image
Air Resources Laboratory web site National Oceanic and Atmospheric Administration (NOAA)

mt metar


KBHK 170351Z AUTO 11007KT 10SM CLR 22/09 A3010 RMK AO2 SLP166 T02220094=
KBIL 170353Z 15004KT 10SM FEW120 29/05 A3004 RMK AO2 SLP132 T02940050=
KBTM 170353Z AUTO VRB05KT 10SM CLR 23/M04 A3022 RMK AO2 SLP171 T02331039=
KBZN 170356Z 20007KT 10SM CLR 23/08 A3010 RMK AO2 SLP150 T02280078=
KCTB 170356Z AUTO 29011KT 10SM CLR 20/06 A3008 RMK AO2 SLP152 T02000056=
KDLN 170353Z AUTO 34008KT 10SM CLR 19/03 A3015 RMK AO2 SLP157 T01890028=
KGDV 170356Z AUTO 11005KT CLR 26/09 A3004 RMK AO2 SLP150 T02610089 PWINO $=
KGFA 170358Z AUTO 35003KT 10SM CLR 27/M03 A3003 RMK AO2 SLP136 T02691029=
KGGW 170353Z AUTO 12012KT 10SM CLR 29/07 A2996 RMK AO2 SLP127 T02890072=
KGTF 170353Z 35006KT 10SM CLR 23/M02 A3005 RMK AO2 SLP142 T02331022 $=
KHLN 170353Z AUTO 25006KT 10SM CLR 27/M03 A3008 RMK AO2 SLP163 T02721033=
KHVR 170353Z AUTO 18005KT 10SM CLR 23/01 A2996 RMK AO2 SLP125 T02330006 $=
KJDN 170348Z AUTO 13007KT 27/07 A2999 RMK AO1 SLP132 T02720072=
KLVM 170353Z AUTO 30006KT 10SM CLR 21/03 A3010 RMK AO2 SLP148 T02060033=
KLWT 170354Z AUTO 13003KT 10SM CLR 24/08 A3009 RMK AO2 SLP143 T02440078=
KMLS 170353Z AUTO 13005KT 10SM CLR 27/11 A3001 RMK AO2 SLP139 T02720111=
KMSO 170353Z 35007KT 10SM CLR 24/03 A3004 RMK AO2 SLP150 T02440033=
KOLF 170353Z AUTO 11006KT 10SM CLR 28/07 A2998 RMK AO2 SLP138 T02780067=
KSDY 170356Z AUTO 08003KT 10SM CLR 23/09 A3002 RMK AO2 SLP158 T02280094=
KWYS 170355Z AUTO 21004KT 10SM CLR 16/06 A3026 RMK AO2=